Terminal Aerodrome Forecast
Issued by NWS Billings, MT

Home | Current Version | Previous Version | Graphics & Text | Print | Product List | Glossary On
Versions: 1 2 3 4 5 6 7 8 9 10 11 12 13 14 15 16 17 18 19 20 21 22 23 24 25 26 27 28 29 30 31 32 33 34 35 36
060
FTUS45 KBYZ 211727
TAFMLS
TAF
KMLS 211727Z 2118/2218 VRB05KT 1/2SM FZFG VV003
      TEMPO 2118/2119 6SM BR SCT003
     FM211900 VRB05KT P6SM FEW005 SCT200
     FM220200 VRB05KT P6SM VCFG SCT005 SCT120
     FM220500 VRB05KT 1/2SM FZFG VV003=

USA.gov is the U.S. government's official web portal to all federal, state and local government web resources and services.